createdAt,value
2022-11-29T00:01:01.863Z,19.77
2022-11-29T00:03:29.564Z,20.40
2022-11-29T00:08:23.849Z,24.15
2022-11-29T00:10:50.473Z,19.02
2022-11-29T00:13:17.928Z,22.45
2022-11-29T00:15:44.348Z,24.52
2022-11-29T00:18:10.675Z,19.33
2022-11-29T00:20:39.037Z,21.83
2022-11-29T00:23:05.509Z,24.95
2022-11-29T00:25:31.982Z,23.27
2022-11-29T00:27:58.327Z,19.45
2022-11-29T00:30:24.947Z,23.02
2022-11-29T00:32:51.505Z,22.67
2022-11-29T00:35:18.099Z,23.10
2022-11-29T00:37:44.446Z,22.55
2022-11-29T00:40:11.473Z,20.63
2022-11-29T00:42:37.823Z,22.75
2022-11-29T00:45:04.621Z,24.33
2022-11-29T00:47:30.971Z,24.50
2022-11-29T00:49:57.312Z,24.02
2022-11-29T00:52:23.673Z,21.27
2022-11-29T00:54:50.124Z,21.90
2022-11-29T00:57:16.466Z,23.13
2022-11-29T00:59:42.894Z,21.67
2022-11-29T01:02:09.261Z,21.85
2022-11-29T01:04:35.728Z,21.38
2022-11-29T01:07:02.050Z,22.80
2022-11-29T01:09:28.386Z,24.55
2022-11-29T01:11:54.810Z,21.83
2022-11-29T01:14:21.173Z,24.25
2022-11-29T01:16:47.537Z,21.70
2022-11-29T01:19:14.014Z,22.50
2022-11-29T01:21:41.163Z,21.80
2022-11-29T01:24:07.713Z,25.05
2022-11-29T01:26:34.060Z,22.88
2022-11-29T01:29:00.469Z,22.52
2022-11-29T01:31:33.073Z,20.55
2022-11-29T01:34:01.505Z,20.77
2022-11-29T01:36:28.705Z,23.35
2022-11-29T01:38:55.182Z,24.65
2022-11-29T01:41:27.556Z,21.45
2022-11-29T01:44:07.040Z,20.13
2022-11-29T01:46:36.013Z,24.52
2022-11-29T01:49:07.799Z,23.60
2022-11-29T01:51:37.579Z,23.80
2022-11-29T01:54:05.206Z,21.73
2022-11-29T01:56:33.868Z,23.73
2022-11-29T01:59:03.282Z,24.10
2022-11-29T02:01:29.656Z,22.55
2022-11-29T02:03:56.034Z,20.80
2022-11-29T02:06:23.611Z,22.75
2022-11-29T02:08:50.037Z,22.50
2022-11-29T02:11:42.490Z,26.08
2022-11-29T02:14:23.849Z,21.75
2022-11-29T02:17:28.823Z,23.40
2022-11-29T02:20:22.899Z,21.65
2022-11-29T02:23:08.241Z,24.30
2022-11-29T02:25:59.367Z,24.73
2022-11-29T02:29:09.599Z,19.75
2022-11-29T02:31:59.943Z,22.73
2022-11-29T02:34:37.930Z,21.30
2022-11-29T02:37:30.341Z,19.90
2022-11-29T02:40:20.514Z,22.15
2022-11-29T02:43:07.324Z,19.00
2022-11-29T02:46:05.103Z,22.67
2022-11-29T02:49:00.342Z,21.77
2022-11-29T02:51:42.938Z,18.63
2022-11-29T02:54:25.734Z,20.05
2022-11-29T02:57:06.949Z,20.35
2022-11-29T02:59:41.346Z,20.48
2022-11-29T03:02:35.691Z,21.10
2022-11-29T03:05:17.008Z,21.42
2022-11-29T03:08:19.923Z,23.73
2022-11-29T03:11:06.584Z,20.40
2022-11-29T03:13:41.911Z,21.67
2022-11-29T03:16:28.461Z,21.48
2022-11-29T03:19:05.796Z,19.98
2022-11-29T03:21:52.289Z,19.65
2022-11-29T03:24:25.907Z,20.75
2022-11-29T03:27:17.104Z,22.88
2022-11-29T03:30:04.039Z,19.40
2022-11-29T03:32:56.984Z,21.55
2022-11-29T03:35:53.444Z,18.85
2022-11-29T03:38:41.384Z,25.42
2022-11-29T03:41:28.227Z,19.67
2022-11-29T03:44:04.049Z,20.42
2022-11-29T03:47:07.702Z,22.23
2022-11-29T03:49:42.619Z,20.45
2022-11-29T03:52:19.821Z,19.70
2022-11-29T03:55:00.600Z,21.13
2022-11-29T03:57:45.424Z,19.75
2022-11-29T04:00:13.762Z,21.30
2022-11-29T04:03:06.218Z,22.17
2022-11-29T04:05:54.377Z,21.05
2022-11-29T04:08:32.500Z,18.88
2022-11-29T04:11:28.093Z,17.83
2022-11-29T04:13:59.062Z,20.08
2022-11-29T04:17:02.536Z,20.38
2022-11-29T04:19:42.704Z,20.35
2022-11-29T04:22:26.520Z,25.80
2022-11-29T04:25:03.324Z,20.48
2022-11-29T04:27:36.037Z,19.42
2022-11-29T04:30:25.851Z,20.77
2022-11-29T04:33:14.167Z,23.17
2022-11-29T04:35:52.735Z,20.05
2022-11-29T04:38:47.861Z,19.10
2022-11-29T04:41:17.205Z,24.38
2022-11-29T04:44:02.022Z,21.27
2022-11-29T04:46:49.691Z,19.73
2022-11-29T04:49:45.711Z,20.60
2022-11-29T04:52:38.038Z,21.00
2022-11-29T04:55:37.050Z,22.75
2022-11-29T04:58:21.949Z,21.42
2022-11-29T05:01:09.473Z,17.77
2022-11-29T05:03:41.405Z,20.55
2022-11-29T05:06:22.773Z,22.10
2022-11-29T05:09:06.378Z,20.40
2022-11-29T05:11:44.704Z,23.67
2022-11-29T05:14:31.948Z,21.77
2022-11-29T05:17:21.601Z,23.45
2022-11-29T05:20:18.087Z,21.75
2022-11-29T05:23:33.489Z,23.08
2022-11-29T05:26:14.795Z,19.48
2022-11-29T05:28:56.413Z,22.08
2022-11-29T05:31:59.692Z,22.67
2022-11-29T05:34:34.566Z,23.15
2022-11-29T05:37:15.676Z,22.98
2022-11-29T05:39:57.477Z,16.48
2022-11-29T05:42:29.822Z,20.63
2022-11-29T05:45:21.040Z,21.98
2022-11-29T05:47:59.261Z,23.23
2022-11-29T05:50:42.822Z,21.52
2022-11-29T05:53:24.677Z,21.30
2022-11-29T05:56:15.204Z,19.75
2022-11-29T05:58:56.372Z,21.73
2022-11-29T06:01:28.447Z,24.27
2022-11-29T06:04:02.378Z,21.35
2022-11-29T06:06:57.774Z,26.27
2022-11-29T06:09:41.735Z,26.23
2022-11-29T06:12:21.340Z,21.10
2022-11-29T06:17:39.398Z,20.10
2022-11-29T06:20:13.009Z,25.15
2022-11-29T06:22:55.951Z,19.30
2022-11-29T06:26:07.492Z,18.30
2022-11-29T06:28:33.874Z,18.83
2022-11-29T06:31:15.480Z,21.15
2022-11-29T06:33:56.333Z,22.65
2022-11-29T06:36:38.538Z,20.27
2022-11-29T06:39:05.547Z,34.17
2022-11-29T06:41:32.236Z,31.60
2022-11-29T06:43:58.903Z,24.80
2022-11-29T06:46:45.585Z,33.95
2022-11-29T06:49:28.384Z,22.05
2022-11-29T06:52:13.654Z,22.35
2022-11-29T06:55:04.636Z,22.95
2022-11-29T06:57:58.806Z,23.08
2022-11-29T07:00:28.137Z,21.83
2022-11-29T07:03:00.751Z,20.63
2022-11-29T07:05:32.188Z,26.55
2022-11-29T07:08:04.654Z,26.13
2022-11-29T07:10:33.173Z,26.17
2022-11-29T07:12:59.924Z,27.27
2022-11-29T07:15:28.042Z,25.75
2022-11-29T07:18:03.535Z,23.98
2022-11-29T07:20:41.890Z,25.88
2022-11-29T07:23:22.025Z,26.15
2022-11-29T07:25:58.809Z,24.75
2022-11-29T07:29:07.052Z,22.40
2022-11-29T07:32:15.122Z,27.02
2022-11-29T07:34:47.994Z,22.73
2022-11-29T07:37:33.336Z,23.75
2022-11-29T07:40:02.320Z,32.05
2022-11-29T07:42:35.483Z,26.15
2022-11-29T07:45:36.765Z,31.13
2022-11-29T07:48:04.869Z,24.60
2022-11-29T07:50:31.715Z,27.05
2022-11-29T07:52:59.281Z,24.52
2022-11-29T07:55:27.169Z,24.23
2022-11-29T07:57:53.818Z,26.33
2022-11-29T08:00:20.647Z,28.15
2022-11-29T08:02:50.204Z,28.17
2022-11-29T08:05:16.754Z,27.58
2022-11-29T08:07:43.705Z,24.70
2022-11-29T08:10:13.714Z,22.50
2022-11-29T08:12:48.586Z,25.27
2022-11-29T08:15:15.715Z,23.20
2022-11-29T08:17:42.192Z,24.83
2022-11-29T08:20:10.648Z,23.50
2022-11-29T08:22:37.464Z,23.90
2022-11-29T08:25:04.873Z,23.05
2022-11-29T08:27:31.582Z,22.88
2022-11-29T08:29:57.998Z,24.88
2022-11-29T08:32:25.306Z,24.20
2022-11-29T08:34:51.784Z,21.40
2022-11-29T08:37:18.286Z,22.30
2022-11-29T08:39:44.647Z,26.98
2022-11-29T08:42:11.390Z,26.10
2022-11-29T08:44:37.742Z,24.35
2022-11-29T08:47:22.797Z,23.70
2022-11-29T08:50:04.357Z,20.48
2022-11-29T08:52:52.020Z,20.42
2022-11-29T08:55:20.101Z,23.27
2022-11-29T08:57:47.495Z,22.85
2022-11-29T09:00:14.698Z,21.48
2022-11-29T09:02:41.254Z,21.95
2022-11-29T09:05:09.734Z,24.33
2022-11-29T09:07:36.378Z,17.63
2022-11-29T09:10:08.025Z,18.98
2022-11-29T09:12:35.955Z,21.38
2022-11-29T09:15:04.944Z,19.77
2022-11-29T09:17:31.257Z,20.90
2022-11-29T09:19:57.690Z,20.25
2022-11-29T09:22:24.066Z,19.10
2022-11-29T09:24:50.431Z,19.13
2022-11-29T09:27:16.854Z,22.63
2022-11-29T09:29:43.313Z,20.40
2022-11-29T09:32:09.826Z,19.15
2022-11-29T09:34:36.753Z,18.65
2022-11-29T09:37:05.157Z,26.65
2022-11-29T09:39:31.601Z,31.70
2022-11-29T09:42:13.438Z,24.98
2022-11-29T09:44:50.254Z,20.73
2022-11-29T09:47:16.516Z,17.88
2022-11-29T09:50:21.172Z,20.92
2022-11-29T09:53:04.705Z,21.48
2022-11-29T09:56:02.979Z,19.75
2022-11-29T09:58:36.985Z,19.55
2022-11-29T10:01:08.226Z,17.35
2022-11-29T10:03:40.226Z,19.83
2022-11-29T10:06:23.141Z,20.55
2022-11-29T10:09:33.665Z,20.10
2022-11-29T10:12:05.248Z,16.77
2022-11-29T10:14:43.359Z,20.55
2022-11-29T10:17:38.413Z,19.63
2022-11-29T10:20:15.523Z,20.27
2022-11-29T10:22:53.460Z,21.27
2022-11-29T10:25:30.666Z,18.65
2022-11-29T10:27:57.830Z,19.95
2022-11-29T10:30:24.289Z,20.27
2022-11-29T10:33:00.333Z,20.17
2022-11-29T10:35:27.030Z,22.65
2022-11-29T10:38:29.227Z,18.05
2022-11-29T10:40:48.245Z,17.55
2022-11-29T10:43:14.827Z,17.70
2022-11-29T10:45:50.729Z,20.25
2022-11-29T10:48:20.055Z,19.33
2022-11-29T10:50:49.128Z,20.73
2022-11-29T10:53:18.983Z,20.70
2022-11-29T10:56:16.433Z,18.10
2022-11-29T10:59:07.810Z,18.48
2022-11-29T11:01:38.504Z,18.27
2022-11-29T11:04:09.818Z,21.25
2022-11-29T11:06:45.342Z,22.02
2022-11-29T11:09:20.961Z,23.02
2022-11-29T11:11:57.765Z,18.13
2022-11-29T11:14:31.828Z,16.33
2022-11-29T11:17:25.821Z,17.23
2022-11-29T11:20:18.490Z,17.20
2022-11-29T11:22:56.141Z,18.70
2022-11-29T11:25:30.258Z,18.65
2022-11-29T11:27:58.614Z,17.80
2022-11-29T11:30:27.623Z,17.05
2022-11-29T11:33:22.520Z,18.67
2022-11-29T11:36:03.320Z,18.30
2022-11-29T11:38:30.077Z,21.50
2022-11-29T11:41:16.682Z,18.85
2022-11-29T11:43:50.504Z,18.67
2022-11-29T11:46:18.232Z,17.85
2022-11-29T11:48:44.957Z,17.33
2022-11-29T11:51:25.614Z,16.83
2022-11-29T11:53:56.381Z,16.67
2022-11-29T11:56:24.212Z,16.33
2022-11-29T11:58:54.408Z,16.75
2022-11-29T12:01:30.591Z,19.42
2022-11-29T12:03:59.728Z,16.85
2022-11-29T12:06:31.683Z,19.48
2022-11-29T12:09:18.736Z,17.10
2022-11-29T12:11:55.186Z,17.10
2022-11-29T12:14:53.750Z,16.40
2022-11-29T12:17:41.771Z,16.63
2022-11-29T12:20:24.850Z,15.63
2022-11-29T12:22:53.919Z,18.85
2022-11-29T12:25:29.342Z,18.70
2022-11-29T12:27:55.764Z,17.77
2022-11-29T12:30:22.130Z,16.77
2022-11-29T12:33:09.609Z,18.15
2022-11-29T12:35:59.717Z,17.42
2022-11-29T12:38:44.771Z,14.82
2022-11-29T12:41:22.577Z,16.88
2022-11-29T12:44:18.531Z,17.40
2022-11-29T12:47:02.089Z,17.65
2022-11-29T12:50:05.026Z,16.30
2022-11-29T12:52:48.486Z,17.42
2022-11-29T12:55:20.986Z,18.02
2022-11-29T12:58:04.348Z,14.73
2022-11-29T13:00:51.477Z,17.67
2022-11-29T13:03:27.607Z,17.65
2022-11-29T13:06:12.670Z,15.93
2022-11-29T13:08:46.479Z,18.13
2022-11-29T13:11:33.770Z,16.75
2022-11-29T13:14:34.640Z,32.15
2022-11-29T13:16:57.729Z,18.13
2022-11-29T13:19:36.821Z,17.52
2022-11-29T13:22:18.289Z,18.45
2022-11-29T13:24:47.317Z,21.33
2022-11-29T13:27:27.377Z,25.58
2022-11-29T13:29:54.374Z,21.50
2022-11-29T13:32:48.382Z,23.58
2022-11-29T13:35:14.665Z,18.40
2022-11-29T13:38:01.011Z,17.08
2022-11-29T13:40:48.513Z,17.35
2022-11-29T13:43:41.645Z,15.18
2022-11-29T13:46:28.061Z,19.60
2022-11-29T13:48:55.397Z,18.08
2022-11-29T13:51:23.358Z,18.35
2022-11-29T13:53:50.473Z,20.48
2022-11-29T13:56:46.548Z,20.65
2022-11-29T13:59:27.555Z,17.55
2022-11-29T14:01:54.601Z,21.98
2022-11-29T14:04:29.053Z,18.50
2022-11-29T14:07:08.499Z,20.25
2022-11-29T14:09:48.398Z,20.02
2022-11-29T14:12:26.845Z,18.88
2022-11-29T14:15:38.754Z,18.50
2022-11-29T14:18:09.506Z,16.27
2022-11-29T14:20:55.327Z,15.70
2022-11-29T14:26:04.537Z,17.13
2022-11-29T14:28:37.228Z,25.60
2022-11-29T14:31:05.400Z,20.23
2022-11-29T14:33:47.003Z,17.35
2022-11-29T14:36:47.594Z,20.38
2022-11-29T14:39:32.607Z,27.33
2022-11-29T14:42:18.414Z,31.45
2022-11-29T14:47:31.769Z,16.95
2022-11-29T14:50:01.465Z,14.05
2022-11-29T14:52:38.901Z,18.02
2022-11-29T14:55:14.458Z,15.98
2022-11-29T14:57:46.854Z,16.20
2022-11-29T15:00:15.533Z,17.85
2022-11-29T15:02:47.020Z,17.48
2022-11-29T15:05:24.437Z,20.48
2022-11-29T15:08:14.154Z,15.73
2022-11-29T15:10:44.738Z,16.50
2022-11-29T15:13:23.477Z,18.38
2022-11-29T15:16:24.106Z,17.02
2022-11-29T15:18:59.418Z,14.23
2022-11-29T15:21:47.112Z,16.35
2022-11-29T15:24:16.465Z,15.25
2022-11-29T15:27:03.909Z,16.42
2022-11-29T15:29:31.242Z,14.20
2022-11-29T15:32:01.557Z,19.42
2022-11-29T15:34:35.176Z,15.75
2022-11-29T15:39:28.141Z,12.45
2022-11-29T15:42:03.799Z,18.40
2022-11-29T15:44:32.726Z,14.13
2022-11-29T15:47:22.184Z,18.58
2022-11-29T15:49:49.965Z,16.77
2022-11-29T15:52:27.828Z,18.52
2022-11-29T15:55:02.224Z,17.48
2022-11-29T15:57:49.526Z,18.42
2022-11-29T16:00:24.116Z,18.50
2022-11-29T16:02:56.096Z,15.90
2022-11-29T16:05:29.314Z,20.88
2022-11-29T16:08:01.495Z,18.27
2022-11-29T16:10:43.952Z,19.20
2022-11-29T16:13:25.753Z,17.33
2022-11-29T16:16:10.690Z,14.98
2022-11-29T16:18:41.030Z,21.00
2022-11-29T16:21:20.576Z,19.88
2022-11-29T16:23:46.969Z,20.75
2022-11-29T16:26:18.970Z,18.23
2022-11-29T16:28:48.501Z,20.02
2022-11-29T16:31:23.295Z,20.23
2022-11-29T16:33:52.270Z,19.42
2022-11-29T16:36:26.756Z,17.63
2022-11-29T16:38:59.574Z,17.23
2022-11-29T16:41:37.087Z,17.40
2022-11-29T16:44:06.102Z,15.88
2022-11-29T16:46:35.191Z,16.85
2022-11-29T16:49:23.393Z,15.55
2022-11-29T16:51:51.627Z,16.15
2022-11-29T16:54:37.746Z,15.07
2022-11-29T16:57:06.423Z,16.45
2022-11-29T16:59:35.130Z,17.85
2022-11-29T17:02:01.640Z,16.77
2022-11-29T17:04:27.974Z,17.42
2022-11-29T17:06:56.127Z,19.48
2022-11-29T17:09:26.490Z,17.48
2022-11-29T17:11:54.182Z,16.63
2022-11-29T17:14:20.645Z,18.92
2022-11-29T17:16:49.901Z,17.55
2022-11-29T17:19:16.861Z,14.18
2022-11-29T17:21:43.692Z,13.45
2022-11-29T17:24:13.444Z,12.73
2022-11-29T17:26:40.875Z,14.65
2022-11-29T17:29:07.830Z,15.27
2022-11-29T17:31:34.321Z,16.95
2022-11-29T17:34:01.026Z,17.25
2022-11-29T17:36:28.190Z,16.75
2022-11-29T17:38:54.922Z,16.13
2022-11-29T17:41:23.982Z,14.35
2022-11-29T17:43:51.865Z,15.07
2022-11-29T17:46:24.142Z,15.38
2022-11-29T17:48:52.215Z,16.98
2022-11-29T17:51:49.827Z,17.85
2022-11-29T17:54:09.292Z,18.67
2022-11-29T17:56:35.700Z,20.80
2022-11-29T17:59:03.977Z,21.15
2022-11-29T18:01:35.715Z,19.48
2022-11-29T18:04:03.916Z,18.05
2022-11-29T18:06:34.975Z,17.35
2022-11-29T18:09:02.480Z,20.50
2022-11-29T18:11:45.001Z,18.05
2022-11-29T18:14:16.176Z,21.90
2022-11-29T18:16:43.032Z,32.25
2022-11-29T18:19:12.236Z,22.48
2022-11-29T18:21:39.316Z,21.67
2022-11-29T18:24:08.889Z,22.48
2022-11-29T18:26:36.944Z,22.40
2022-11-29T18:29:04.953Z,27.27
2022-11-29T18:31:37.293Z,23.58
2022-11-29T18:34:09.765Z,24.33
2022-11-29T18:36:39.235Z,20.15
2022-11-29T18:39:12.438Z,20.23
2022-11-29T18:41:41.181Z,18.13
2022-11-29T18:44:10.249Z,18.13
2022-11-29T18:46:38.535Z,16.48
2022-11-29T18:49:07.371Z,19.45
2022-11-29T18:51:35.086Z,15.70
2022-11-29T18:56:30.542Z,16.58
2022-11-29T18:59:00.503Z,17.55
2022-11-29T19:01:29.283Z,17.17
2022-11-29T19:03:59.240Z,17.92
2022-11-29T19:06:30.796Z,19.88
2022-11-29T19:09:02.448Z,18.73
2022-11-29T19:11:31.001Z,17.60
2022-11-29T19:14:03.228Z,19.75
2022-11-29T19:16:31.826Z,18.70
2022-11-29T19:18:59.694Z,19.58
2022-11-29T19:21:27.930Z,15.02
2022-11-29T19:24:01.374Z,18.08
2022-11-29T19:26:30.185Z,17.85
2022-11-29T19:28:57.329Z,22.27
2022-11-29T19:31:25.128Z,20.23
2022-11-29T19:33:52.479Z,26.13
2022-11-29T19:36:22.225Z,19.85
2022-11-29T19:38:53.496Z,21.52
2022-11-29T19:41:25.070Z,24.70
2022-11-29T19:43:52.081Z,22.92
2022-11-29T19:46:27.832Z,24.02
2022-11-29T19:48:56.096Z,25.83
2022-11-29T19:51:23.455Z,24.38
2022-11-29T19:53:55.199Z,18.55
2022-11-29T19:56:22.592Z,21.48
2022-11-29T19:58:49.626Z,19.75
2022-11-29T20:01:22.896Z,22.90
2022-11-29T20:03:49.657Z,18.98
2022-11-29T20:06:17.440Z,20.13
2022-11-29T20:08:44.866Z,19.67
2022-11-29T20:11:17.321Z,17.40
2022-11-29T20:13:45.517Z,18.05
2022-11-29T20:16:18.317Z,18.08
2022-11-29T20:18:50.607Z,18.25
2022-11-29T20:21:23.837Z,17.08
2022-11-29T20:24:02.393Z,22.10
2022-11-29T20:26:30.978Z,21.67
2022-11-29T20:28:57.651Z,18.85
2022-11-29T20:31:24.135Z,20.23
2022-11-29T20:33:53.223Z,19.30
2022-11-29T20:36:43.214Z,20.15
2022-11-29T20:39:32.003Z,22.65
2022-11-29T20:42:14.862Z,25.27
2022-11-29T20:44:57.649Z,20.88
2022-11-29T20:47:33.497Z,19.58
2022-11-29T20:50:00.220Z,19.23
2022-11-29T20:52:47.864Z,18.15
2022-11-29T20:55:14.393Z,16.52
2022-11-29T20:57:40.732Z,18.33
2022-11-29T21:00:11.231Z,20.05
2022-11-29T21:02:38.057Z,19.95
2022-11-29T21:05:05.466Z,18.13
2022-11-29T21:07:31.864Z,18.20
2022-11-29T21:10:01.396Z,16.98
2022-11-29T21:12:29.521Z,17.48
2022-11-29T21:14:56.539Z,18.48
2022-11-29T21:17:23.261Z,17.08
2022-11-29T21:19:50.168Z,22.77
2022-11-29T21:22:50.265Z,20.63
2022-11-29T21:25:55.151Z,17.30
2022-11-29T21:28:28.565Z,19.08
2022-11-29T21:30:55.162Z,17.98
2022-11-29T21:33:21.839Z,17.70
2022-11-29T21:35:53.761Z,20.40
2022-11-29T21:38:22.846Z,16.52
2022-11-29T21:40:49.211Z,17.45
2022-11-29T21:43:15.602Z,19.27
2022-11-29T21:45:41.948Z,15.50
2022-11-29T21:48:28.700Z,17.83
2022-11-29T21:50:56.498Z,17.27
2022-11-29T21:53:22.882Z,17.08
2022-11-29T21:55:55.595Z,16.00
2022-11-29T21:58:22.062Z,15.65
2022-11-29T22:00:48.397Z,16.63
2022-11-29T22:03:15.798Z,15.65
2022-11-29T22:05:42.166Z,14.52
2022-11-29T22:08:08.551Z,13.73
2022-11-29T22:10:34.906Z,17.02
2022-11-29T22:13:01.380Z,13.90
2022-11-29T22:15:29.049Z,14.68
2022-11-29T22:20:22.735Z,15.65
2022-11-29T22:22:49.308Z,15.80
2022-11-29T22:25:16.284Z,16.80
2022-11-29T22:27:42.679Z,19.00
2022-11-29T22:30:09.435Z,17.40
2022-11-29T22:32:35.766Z,16.70
2022-11-29T22:35:02.106Z,15.88
2022-11-29T22:37:28.452Z,15.93
2022-11-29T22:39:54.778Z,18.00
2022-11-29T22:42:21.158Z,14.70
2022-11-29T22:44:47.707Z,15.95
2022-11-29T22:47:14.164Z,18.38
2022-11-29T22:49:40.546Z,15.82
2022-11-29T22:52:06.882Z,17.80
2022-11-29T22:54:33.274Z,20.25
2022-11-29T22:56:59.646Z,16.00
2022-11-29T22:59:26.043Z,17.48
2022-11-29T23:01:52.442Z,15.43
2022-11-29T23:04:18.872Z,15.65
2022-11-29T23:06:46.496Z,17.17
2022-11-29T23:09:22.018Z,16.05
2022-11-29T23:11:53.727Z,15.98
2022-11-29T23:14:21.946Z,14.40
2022-11-29T23:16:48.531Z,15.20
2022-11-29T23:19:15.065Z,15.38
2022-11-29T23:21:41.894Z,15.90
2022-11-29T23:24:08.336Z,16.90
2022-11-29T23:26:39.584Z,17.25
2022-11-29T23:29:08.380Z,15.38
2022-11-29T23:31:34.821Z,16.95
2022-11-29T23:34:02.372Z,17.60
2022-11-29T23:36:29.218Z,16.08
2022-11-29T23:38:55.936Z,15.80
2022-11-29T23:41:22.310Z,15.35
2022-11-29T23:43:48.660Z,18.17
2022-11-29T23:46:17.983Z,15.32
2022-11-29T23:48:44.799Z,15.38
2022-11-29T23:51:12.358Z,13.82
2022-11-29T23:53:39.774Z,15.70
2022-11-29T23:56:10.958Z,16.02
2022-11-29T23:58:38.000Z,17.30
